createdAt,value
2018-01-15T00:01:31.109Z,1.40
2018-01-15T00:03:57.390Z,1.70
2018-01-15T00:06:23.721Z,1.70
2018-01-15T00:08:50.048Z,1.40
2018-01-15T00:11:16.310Z,1.40
2018-01-15T00:13:42.602Z,1.60
2018-01-15T00:16:08.939Z,1.40
2018-01-15T00:18:36.252Z,1.50
2018-01-15T00:21:02.554Z,1.90
2018-01-15T00:23:28.806Z,1.30
2018-01-15T00:25:55.484Z,1.50
2018-01-15T00:28:23.745Z,1.40
2018-01-15T00:30:50.003Z,1.50
2018-01-15T00:33:16.278Z,1.20
2018-01-15T00:35:42.592Z,1.40
2018-01-15T00:38:08.860Z,1.40
2018-01-15T00:40:35.143Z,1.40
2018-01-15T00:43:02.253Z,1.70
2018-01-15T00:45:28.531Z,1.40
2018-01-15T00:47:54.812Z,1.50
2018-01-15T00:50:21.846Z,1.40
2018-01-15T00:52:48.878Z,1.10
2018-01-15T00:55:15.150Z,1.40
2018-01-15T00:57:41.518Z,1.40
2018-01-15T01:00:08.521Z,1.60
2018-01-15T01:02:34.843Z,1.50
2018-01-15T01:05:01.130Z,1.30
2018-01-15T01:07:27.430Z,1.30
2018-01-15T01:09:53.702Z,1.30
2018-01-15T01:12:20.007Z,1.20
2018-01-15T01:14:46.306Z,1.50
2018-01-15T01:17:12.583Z,1.00
2018-01-15T01:19:38.884Z,1.10
2018-01-15T01:22:05.234Z,1.10
2018-01-15T01:24:31.522Z,1.20
2018-01-15T01:26:59.462Z,1.30
2018-01-15T01:29:27.283Z,1.00
2018-01-15T01:31:53.590Z,1.20
2018-01-15T01:34:19.898Z,1.40
2018-01-15T01:36:46.187Z,1.20
2018-01-15T01:39:12.449Z,1.20
2018-01-15T01:41:38.738Z,1.20
2018-01-15T01:44:05.018Z,1.30
2018-01-15T01:46:31.306Z,1.00
2018-01-15T01:48:57.643Z,1.00
2018-01-15T01:51:24.650Z,1.10
2018-01-15T01:53:50.923Z,0.90
2018-01-15T01:56:17.203Z,0.80
2018-01-15T01:58:44.242Z,1.20
2018-01-15T02:01:10.520Z,1.20
2018-01-15T02:03:36.875Z,1.10
2018-01-15T02:06:03.167Z,1.20
2018-01-15T02:08:29.495Z,1.10
2018-01-15T02:10:56.537Z,0.70
2018-01-15T02:13:22.871Z,0.90
2018-01-15T02:15:49.129Z,0.80
2018-01-15T02:18:15.430Z,0.70
2018-01-15T02:20:41.689Z,0.80
2018-01-15T02:23:08.711Z,1.00
2018-01-15T02:25:35.046Z,1.00
2018-01-15T02:28:01.344Z,0.80
2018-01-15T02:30:28.363Z,1.00
2018-01-15T02:32:55.450Z,0.70
2018-01-15T02:35:21.763Z,1.00
2018-01-15T02:37:48.066Z,1.00
2018-01-15T02:40:14.394Z,0.80
2018-01-15T02:42:41.427Z,0.80
2018-01-15T02:45:07.714Z,0.80
2018-01-15T02:47:34.761Z,0.90
2018-01-15T02:50:01.023Z,0.90
2018-01-15T02:52:27.282Z,0.20
2018-01-15T02:54:54.591Z,0.70
2018-01-15T02:57:20.878Z,0.90
2018-01-15T02:59:47.591Z,1.00
2018-01-15T03:02:13.919Z,0.90
2018-01-15T03:04:40.182Z,1.00
2018-01-15T03:07:07.187Z,1.20
2018-01-15T03:09:33.470Z,1.20
2018-01-15T03:11:59.748Z,1.20
2018-01-15T03:14:26.747Z,1.40
2018-01-15T03:16:53.047Z,1.20
2018-01-15T03:19:19.321Z,1.20
2018-01-15T03:21:45.613Z,1.40
2018-01-15T03:24:12.644Z,1.60
2018-01-15T03:26:39.732Z,1.60
2018-01-15T03:29:06.019Z,1.40
2018-01-15T03:31:32.311Z,1.40
2018-01-15T03:33:59.323Z,1.50
2018-01-15T03:36:25.578Z,1.60
2018-01-15T03:38:51.899Z,1.30
2018-01-15T03:41:18.223Z,1.30
2018-01-15T03:43:44.495Z,1.40
2018-01-15T03:46:10.789Z,1.20
2018-01-15T03:48:37.045Z,1.30
2018-01-15T03:51:03.342Z,1.30
2018-01-15T03:53:29.653Z,1.50
2018-01-15T03:55:55.914Z,1.50
2018-01-15T03:58:22.192Z,1.30
2018-01-15T04:00:49.273Z,1.50
2018-01-15T04:03:15.541Z,1.30
2018-01-15T04:05:42.560Z,1.60
2018-01-15T04:08:08.870Z,1.40
2018-01-15T04:10:35.135Z,1.50
2018-01-15T04:13:01.399Z,1.50
2018-01-15T04:15:27.703Z,1.50
2018-01-15T04:17:53.961Z,1.60
2018-01-15T04:20:20.995Z,1.70
2018-01-15T04:22:48.029Z,1.70
2018-01-15T04:25:15.064Z,1.70
2018-01-15T04:27:41.333Z,1.30
2018-01-15T04:30:07.662Z,1.50
2018-01-15T04:32:33.933Z,1.70
2018-01-15T04:35:00.225Z,1.60
2018-01-15T04:37:26.519Z,1.60
2018-01-15T04:39:52.790Z,1.80
2018-01-15T04:42:19.074Z,1.70
2018-01-15T04:44:45.374Z,1.40
2018-01-15T04:47:12.430Z,1.40
2018-01-15T04:49:38.789Z,1.70
2018-01-15T04:52:05.078Z,1.60
2018-01-15T04:54:31.323Z,1.80
2018-01-15T04:56:57.601Z,1.80
2018-01-15T04:59:28.764Z,1.50
2018-01-15T05:01:57.352Z,1.50
2018-01-15T05:04:25.944Z,1.70
2018-01-15T05:06:54.687Z,1.60
2018-01-15T05:09:20.989Z,1.60
2018-01-15T05:11:47.292Z,1.80
2018-01-15T05:14:13.596Z,1.50
2018-01-15T05:16:39.882Z,1.70
2018-01-15T05:19:06.219Z,1.80
2018-01-15T05:21:32.545Z,1.60
2018-01-15T05:23:58.827Z,1.70
2018-01-15T05:26:25.116Z,1.80
2018-01-15T05:28:51.393Z,1.70
2018-01-15T05:31:17.660Z,1.50
2018-01-15T05:33:43.969Z,1.60
2018-01-15T05:36:11.071Z,1.90
2018-01-15T05:38:37.415Z,1.60
2018-01-15T05:41:03.895Z,1.80
2018-01-15T05:43:30.352Z,2.00
2018-01-15T05:45:56.680Z,1.70
2018-01-15T05:48:23.746Z,1.60
2018-01-15T05:50:50.082Z,1.60
2018-01-15T05:53:16.436Z,1.70
2018-01-15T05:55:42.768Z,1.60
2018-01-15T05:58:09.893Z,1.80
2018-01-15T06:00:37.018Z,1.60
2018-01-15T06:03:03.314Z,1.70
2018-01-15T06:05:29.663Z,1.90
2018-01-15T06:07:56.691Z,1.90
2018-01-15T06:10:23.719Z,1.90
2018-01-15T06:12:50.056Z,2.20
2018-01-15T06:15:17.096Z,1.80
2018-01-15T06:17:43.371Z,1.60
2018-01-15T06:20:09.789Z,2.00
2018-01-15T06:22:36.908Z,1.60
2018-01-15T06:25:03.212Z,1.70
2018-01-15T06:27:29.501Z,1.90
2018-01-15T06:29:55.790Z,1.80
2018-01-15T06:32:22.818Z,1.70
2018-01-15T06:34:49.101Z,2.00
2018-01-15T06:37:15.407Z,1.90
2018-01-15T06:39:41.717Z,1.70
2018-01-15T06:42:08.032Z,2.00
2018-01-15T06:44:34.315Z,1.80
2018-01-15T06:47:00.579Z,1.80
2018-01-15T06:49:26.862Z,2.00
2018-01-15T06:51:53.129Z,1.90
2018-01-15T06:54:19.392Z,1.80
2018-01-15T06:56:45.681Z,2.00
2018-01-15T06:59:11.956Z,1.80
2018-01-15T07:01:40.821Z,2.10
2018-01-15T07:04:07.182Z,1.90
2018-01-15T07:06:33.492Z,1.20
2018-01-15T07:08:59.771Z,2.00
2018-01-15T07:11:26.077Z,1.80
2018-01-15T07:13:52.348Z,1.80
2018-01-15T07:16:19.386Z,1.80
2018-01-15T07:18:45.680Z,1.80
2018-01-15T07:21:12.081Z,1.80
2018-01-15T07:23:38.383Z,1.90
2018-01-15T07:26:04.690Z,2.00
2018-01-15T07:28:30.970Z,1.90
2018-01-15T07:30:57.238Z,2.00
2018-01-15T07:33:23.785Z,2.20
2018-01-15T07:35:50.040Z,2.10
2018-01-15T07:38:16.332Z,2.00
2018-01-15T07:40:42.620Z,2.00
2018-01-15T07:43:08.897Z,1.90
2018-01-15T07:45:35.183Z,2.00
2018-01-15T07:48:01.487Z,2.20
2018-01-15T07:50:28.510Z,1.90
2018-01-15T07:52:54.781Z,2.00
2018-01-15T07:55:21.122Z,2.00
2018-01-15T07:57:47.491Z,2.00
2018-01-15T08:00:13.816Z,2.00
2018-01-15T08:02:40.154Z,1.80
2018-01-15T08:05:06.473Z,2.30
2018-01-15T08:07:32.799Z,2.30
2018-01-15T08:09:59.146Z,2.40
2018-01-15T08:12:26.193Z,2.10
2018-01-15T08:14:52.453Z,2.10
2018-01-15T08:17:18.790Z,2.30
2018-01-15T08:19:45.132Z,2.50
2018-01-15T08:22:11.997Z,2.50
2018-01-15T08:24:39.085Z,2.30
2018-01-15T08:27:05.389Z,2.60
2018-01-15T08:29:32.297Z,2.60
2018-01-15T08:31:58.622Z,2.70
2018-01-15T08:34:24.906Z,1.90
2018-01-15T08:36:51.266Z,2.70
2018-01-15T08:39:17.541Z,2.40
2018-01-15T08:41:43.796Z,2.60
2018-01-15T08:44:10.818Z,2.40
2018-01-15T08:46:37.415Z,2.40
2018-01-15T08:49:03.699Z,2.30
2018-01-15T08:51:30.146Z,2.40
2018-01-15T08:53:56.978Z,2.60
2018-01-15T08:56:23.353Z,2.70
2018-01-15T08:58:50.414Z,2.60
2018-01-15T09:01:16.761Z,2.60
2018-01-15T09:03:43.039Z,2.60
2018-01-15T09:06:09.334Z,2.40
2018-01-15T09:08:35.653Z,2.50
2018-01-15T09:11:02.466Z,2.80
2018-01-15T09:13:29.207Z,2.60
2018-01-15T09:15:55.541Z,2.50
2018-01-15T09:18:22.277Z,2.60
2018-01-15T09:20:49.433Z,2.80
2018-01-15T09:23:15.756Z,2.70
2018-01-15T09:25:42.129Z,2.80
2018-01-15T09:28:08.416Z,2.90
2018-01-15T09:30:35.602Z,2.70
2018-01-15T09:33:01.890Z,2.70
2018-01-15T09:35:28.202Z,2.70
2018-01-15T09:37:54.571Z,2.70
2018-01-15T09:40:20.903Z,2.60
2018-01-15T09:42:47.168Z,2.90
2018-01-15T09:45:13.476Z,2.70
2018-01-15T09:47:39.773Z,2.70
2018-01-15T09:50:06.355Z,2.80
2018-01-15T09:52:32.766Z,2.80
2018-01-15T09:54:59.036Z,3.00
2018-01-15T09:57:25.333Z,3.10
2018-01-15T09:59:52.398Z,2.90
2018-01-15T10:02:18.940Z,3.00
2018-01-15T10:04:45.222Z,3.20
2018-01-15T10:07:11.573Z,3.20
2018-01-15T10:09:37.884Z,3.00
2018-01-15T10:12:04.178Z,3.00
2018-01-15T10:14:31.031Z,3.00
2018-01-15T10:16:57.298Z,2.90
2018-01-15T10:19:24.325Z,3.30
2018-01-15T10:21:51.523Z,3.20
2018-01-15T10:24:17.812Z,3.10
2018-01-15T10:26:44.104Z,3.20
2018-01-15T10:29:11.205Z,3.10
2018-01-15T10:31:37.493Z,3.10
2018-01-15T10:34:03.781Z,3.10
2018-01-15T10:36:30.845Z,3.40
2018-01-15T10:38:57.290Z,3.20
2018-01-15T10:41:24.445Z,3.00
2018-01-15T10:43:50.759Z,3.20
2018-01-15T10:46:17.931Z,3.20
2018-01-15T10:48:44.740Z,3.20
2018-01-15T10:51:11.030Z,3.40
2018-01-15T10:53:37.447Z,3.30
2018-01-15T10:56:08.147Z,3.50
2018-01-15T10:58:38.774Z,3.40
2018-01-15T11:01:11.297Z,3.30
2018-01-15T11:03:38.082Z,3.20
2018-01-15T11:06:05.470Z,3.30
2018-01-15T11:08:31.810Z,3.30
2018-01-15T11:10:58.178Z,3.10
2018-01-15T11:13:48.020Z,3.20
2018-01-15T11:16:21.566Z,3.10
2018-01-15T11:18:47.910Z,3.30
2018-01-15T11:21:14.412Z,3.40
2018-01-15T11:23:41.205Z,3.20
2018-01-15T11:26:08.242Z,3.40
2018-01-15T11:31:09.770Z,3.60
2018-01-15T11:33:36.059Z,3.50
2018-01-15T11:36:02.707Z,3.70
2018-01-15T11:38:29.022Z,3.50
2018-01-15T11:40:55.863Z,3.60
2018-01-15T11:43:22.584Z,3.00
2018-01-15T11:45:49.006Z,3.10
2018-01-15T11:48:15.509Z,3.80
2018-01-15T11:50:41.766Z,3.70
2018-01-15T11:53:16.970Z,3.60
2018-01-15T11:55:43.488Z,4.00
2018-01-15T11:58:16.249Z,3.90
2018-01-15T12:00:42.565Z,4.00
2018-01-15T12:03:26.312Z,4.00
2018-01-15T12:05:52.621Z,3.80
2018-01-15T12:08:18.910Z,3.80
2018-01-15T12:10:45.510Z,3.60
2018-01-15T12:13:12.593Z,3.50
2018-01-15T12:15:38.853Z,3.70
2018-01-15T12:18:05.901Z,3.80
2018-01-15T12:20:34.793Z,3.50
2018-01-15T12:23:01.201Z,3.60
2018-01-15T12:25:27.456Z,3.20
2018-01-15T12:27:54.556Z,3.90
2018-01-15T12:30:20.833Z,3.90
2018-01-15T12:32:47.174Z,3.90
2018-01-15T12:35:13.485Z,3.80
2018-01-15T12:37:43.174Z,3.90
2018-01-15T12:40:09.533Z,4.20
2018-01-15T12:42:36.596Z,4.00
2018-01-15T12:45:02.892Z,4.10
2018-01-15T12:47:29.232Z,4.10
2018-01-15T12:49:55.572Z,4.20
2018-01-15T12:52:22.625Z,4.20
2018-01-15T12:54:48.940Z,4.10
2018-01-15T12:57:15.209Z,4.00
2018-01-15T12:59:41.473Z,4.00
2018-01-15T13:02:07.761Z,4.20
2018-01-15T13:04:34.774Z,4.20
2018-01-15T13:07:01.093Z,4.30
2018-01-15T13:09:27.401Z,4.20
2018-01-15T13:11:53.669Z,4.30
2018-01-15T13:14:19.945Z,4.50
2018-01-15T13:16:53.780Z,4.20
2018-01-15T13:19:25.417Z,4.40
2018-01-15T13:21:55.793Z,4.60
2018-01-15T13:24:22.121Z,4.10
2018-01-15T13:26:48.417Z,4.50
2018-01-15T13:29:15.514Z,4.00
2018-01-15T13:31:41.817Z,4.50
2018-01-15T13:34:08.093Z,4.40
2018-01-15T13:36:34.433Z,4.20
2018-01-15T13:39:00.835Z,4.40
2018-01-15T13:41:28.095Z,4.10
2018-01-15T13:43:54.733Z,4.20
2018-01-15T13:46:21.018Z,3.80
2018-01-15T13:48:48.298Z,4.30
2018-01-15T13:51:14.783Z,4.10
2018-01-15T13:53:42.034Z,4.40
2018-01-15T13:56:08.545Z,4.40
2018-01-15T13:58:35.198Z,4.70
2018-01-15T14:01:01.886Z,4.50
2018-01-15T14:03:28.793Z,4.70
2018-01-15T14:05:55.138Z,4.80
2018-01-15T14:08:22.230Z,4.70
2018-01-15T14:10:48.489Z,4.60
2018-01-15T14:13:14.794Z,4.70
2018-01-15T14:15:41.812Z,4.70
2018-01-15T14:18:08.804Z,4.70
2018-01-15T14:20:35.130Z,4.80
2018-01-15T14:23:01.465Z,5.20
2018-01-15T14:25:28.262Z,4.70
2018-01-15T14:27:54.563Z,5.00
2018-01-15T14:30:20.825Z,4.60
2018-01-15T14:32:47.107Z,4.60
2018-01-15T14:35:13.426Z,4.60
2018-01-15T14:37:39.728Z,4.90
2018-01-15T14:40:06.079Z,4.20
2018-01-15T14:42:32.346Z,4.80
2018-01-15T14:44:58.684Z,4.90
2018-01-15T14:47:24.960Z,4.80
2018-01-15T14:49:51.990Z,5.00
2018-01-15T14:52:19.074Z,4.70
2018-01-15T14:54:45.395Z,5.40
2018-01-15T14:57:11.706Z,4.80
2018-01-15T14:59:38.024Z,4.90
2018-01-15T15:02:04.315Z,5.10
2018-01-15T15:04:30.879Z,4.90
2018-01-15T15:06:57.200Z,5.10
2018-01-15T15:09:23.519Z,5.10
2018-01-15T15:11:49.817Z,5.20
2018-01-15T15:14:18.820Z,5.10
2018-01-15T15:16:47.255Z,5.10
2018-01-15T15:19:13.554Z,5.00
2018-01-15T15:21:39.875Z,5.20
2018-01-15T15:24:06.309Z,4.70
2018-01-15T15:26:32.817Z,5.00
2018-01-15T15:28:59.147Z,5.30
2018-01-15T15:31:25.551Z,4.90
2018-01-15T15:33:51.994Z,5.00
2018-01-15T15:36:18.250Z,5.00
2018-01-15T15:38:44.610Z,5.10
2018-01-15T15:41:10.990Z,5.00
2018-01-15T15:43:37.309Z,5.00
2018-01-15T15:46:03.623Z,5.00
2018-01-15T15:48:29.953Z,5.10
2018-01-15T15:50:56.237Z,5.20
2018-01-15T15:53:22.550Z,4.90
2018-01-15T15:55:49.641Z,4.70
2018-01-15T15:58:15.949Z,4.80
2018-01-15T16:00:42.254Z,4.90
2018-01-15T16:03:08.604Z,5.00
2018-01-15T16:05:38.899Z,4.70
2018-01-15T16:08:06.445Z,4.70
2018-01-15T16:10:32.787Z,4.60
2018-01-15T16:12:59.041Z,4.50
2018-01-15T16:15:25.337Z,4.60
2018-01-15T16:17:52.515Z,4.70
2018-01-15T16:20:18.917Z,4.10
2018-01-15T16:22:57.560Z,4.60
2018-01-15T16:25:23.984Z,4.60
2018-01-15T16:27:50.253Z,4.70
2018-01-15T16:30:16.556Z,5.00
2018-01-15T16:32:43.000Z,4.80
2018-01-15T16:35:09.425Z,4.90
2018-01-15T16:37:36.714Z,5.00
2018-01-15T16:40:03.110Z,5.00
2018-01-15T16:42:29.578Z,4.80
2018-01-15T16:44:59.468Z,4.90
2018-01-15T16:47:25.861Z,5.00
2018-01-15T16:49:52.151Z,5.00
2018-01-15T16:52:18.885Z,4.90
2018-01-15T16:54:45.245Z,4.80
2018-01-15T16:57:11.635Z,4.80
2018-01-15T16:59:38.322Z,5.00
2018-01-15T17:04:31.917Z,5.00
2018-01-15T17:06:58.342Z,5.00
2018-01-15T17:09:24.658Z,5.00
2018-01-15T17:11:51.957Z,5.20
2018-01-15T17:14:18.564Z,5.00
2018-01-15T17:16:44.874Z,4.90
2018-01-15T17:19:11.468Z,4.80
2018-01-15T17:21:38.055Z,5.10
2018-01-15T17:24:04.653Z,5.40
2018-01-15T17:26:31.271Z,5.10
2018-01-15T17:28:57.799Z,5.20
2018-01-15T17:31:24.436Z,5.20
2018-01-15T17:33:50.745Z,5.40
2018-01-15T17:36:17.410Z,5.20
2018-01-15T17:38:44.406Z,5.30
2018-01-15T17:41:10.970Z,5.30
2018-01-15T17:43:38.105Z,5.50
2018-01-15T17:46:04.619Z,5.30
2018-01-15T17:48:35.760Z,5.50
2018-01-15T17:51:03.593Z,5.40
2018-01-15T17:53:30.774Z,5.60
2018-01-15T17:55:57.173Z,5.30
2018-01-15T17:58:24.103Z,5.30
2018-01-15T18:00:50.753Z,5.30
2018-01-15T18:03:17.312Z,5.40
2018-01-15T18:05:44.425Z,5.50
2018-01-15T18:08:10.756Z,5.40
2018-01-15T18:10:37.288Z,5.40
2018-01-15T18:13:04.061Z,5.90
2018-01-15T18:15:31.085Z,5.60
2018-01-15T18:18:01.280Z,4.90
2018-01-15T18:20:28.332Z,5.70
2018-01-15T18:22:55.571Z,5.50
2018-01-15T18:25:21.864Z,5.50
2018-01-15T18:27:48.469Z,5.80
2018-01-15T18:30:15.477Z,5.80
2018-01-15T18:32:41.923Z,5.50
2018-01-15T18:35:08.989Z,5.70
2018-01-15T18:37:35.271Z,5.90
2018-01-15T18:40:02.387Z,5.30
2018-01-15T18:42:28.705Z,5.40
2018-01-15T18:44:54.973Z,5.50
2018-01-15T18:47:21.298Z,5.50
2018-01-15T18:49:47.620Z,5.40
2018-01-15T18:55:25.984Z,5.60
2018-01-15T18:57:52.472Z,5.60
2018-01-15T19:00:18.786Z,5.80
2018-01-15T19:02:45.438Z,5.50
2018-01-15T19:05:11.709Z,5.70
2018-01-15T19:07:38.001Z,5.50
2018-01-15T19:10:04.326Z,5.40
2018-01-15T19:12:31.474Z,5.60
2018-01-15T19:14:57.752Z,5.20
2018-01-15T19:17:24.144Z,5.70
2018-01-15T19:19:50.493Z,5.80
2018-01-15T19:22:16.815Z,5.70
2018-01-15T19:24:43.138Z,5.80
2018-01-15T19:27:09.712Z,5.70
2018-01-15T19:29:36.023Z,5.10
2018-01-15T19:32:03.105Z,5.70
2018-01-15T19:34:29.426Z,5.80
2018-01-15T19:36:57.652Z,5.80
2018-01-15T19:39:24.018Z,5.70
2018-01-15T19:41:51.350Z,5.60
2018-01-15T19:44:23.972Z,5.80
2018-01-15T19:46:56.205Z,5.70
2018-01-15T19:49:29.403Z,5.70
2018-01-15T19:52:02.378Z,5.50
2018-01-15T19:54:35.824Z,5.70
2018-01-15T19:57:09.190Z,5.80
2018-01-15T19:59:42.345Z,5.60
2018-01-15T20:02:15.966Z,5.50
2018-01-15T20:04:48.339Z,5.80
2018-01-15T20:07:20.734Z,5.40
2018-01-15T20:09:54.168Z,5.60
2018-01-15T20:12:21.166Z,5.50
2018-01-15T20:14:47.611Z,5.60
2018-01-15T20:17:13.967Z,5.30
2018-01-15T20:19:51.795Z,5.70
2018-01-15T20:22:18.086Z,5.60
2018-01-15T20:24:44.353Z,5.40
2018-01-15T20:27:11.534Z,5.50
2018-01-15T20:29:38.002Z,5.60
2018-01-15T20:32:04.683Z,5.60
2018-01-15T20:34:30.945Z,5.50
2018-01-15T20:36:58.736Z,5.50
2018-01-15T20:39:26.923Z,5.50
2018-01-15T20:41:53.946Z,5.40
2018-01-15T20:44:20.309Z,5.50
2018-01-15T20:46:47.344Z,5.50
2018-01-15T20:49:14.362Z,5.50
2018-01-15T20:51:40.713Z,5.60
2018-01-15T20:54:10.852Z,5.90
2018-01-15T20:56:37.147Z,5.70
2018-01-15T20:59:03.486Z,5.70
2018-01-15T21:01:29.794Z,5.70
2018-01-15T21:03:58.055Z,5.60
2018-01-15T21:06:24.387Z,5.60
2018-01-15T21:08:50.673Z,5.70
2018-01-15T21:11:17.012Z,5.60
2018-01-15T21:13:43.855Z,5.70
2018-01-15T21:16:10.180Z,5.70
2018-01-15T21:18:36.495Z,5.50
2018-01-15T21:21:03.370Z,5.60
2018-01-15T21:23:29.982Z,5.90
2018-01-15T21:25:56.296Z,5.70
2018-01-15T21:28:22.682Z,5.70
2018-01-15T21:30:49.159Z,5.80
2018-01-15T21:33:15.705Z,5.90
2018-01-15T21:36:00.421Z,5.90
2018-01-15T21:38:37.570Z,6.20
2018-01-15T21:41:04.150Z,5.20
2018-01-15T21:43:30.516Z,5.60
2018-01-15T21:45:56.801Z,5.50
2018-01-15T21:48:23.110Z,5.90
2018-01-15T21:50:49.426Z,5.90
2018-01-15T21:53:15.693Z,6.20
2018-01-15T21:55:44.197Z,5.90
2018-01-15T21:58:13.569Z,6.00
2018-01-15T22:00:43.365Z,5.90
2018-01-15T22:18:44.091Z,6.30
2018-01-15T22:21:14.511Z,6.00
2018-01-15T22:23:42.986Z,5.90
2018-01-15T22:26:12.275Z,6.20
2018-01-15T22:28:41.184Z,6.30
2018-01-15T22:31:10.741Z,6.30
2018-01-15T22:33:38.506Z,6.40
2018-01-15T22:36:09.588Z,6.30
2018-01-15T22:38:38.176Z,6.00
2018-01-15T22:41:06.579Z,6.20
2018-01-15T22:43:36.016Z,6.40
2018-01-15T22:46:06.072Z,6.30
2018-01-15T22:48:36.213Z,6.50
2018-01-15T22:51:05.510Z,6.60
2018-01-15T22:53:33.518Z,6.70
2018-01-15T22:56:00.521Z,6.40
2018-01-15T22:58:30.846Z,6.50
2018-01-15T23:00:57.465Z,6.40
2018-01-15T23:03:23.798Z,6.50
2018-01-15T23:05:50.107Z,6.60
2018-01-15T23:08:17.318Z,6.80
2018-01-15T23:10:43.587Z,6.80
2018-01-15T23:13:11.939Z,7.00
2018-01-15T23:15:38.365Z,6.80
2018-01-15T23:18:04.738Z,6.90
2018-01-15T23:20:31.308Z,7.10
2018-01-15T23:22:57.621Z,6.90
2018-01-15T23:25:33.917Z,7.50
2018-01-15T23:28:06.390Z,6.90
2018-01-15T23:30:32.784Z,6.80
2018-01-15T23:33:00.030Z,6.50
2018-01-15T23:35:26.507Z,7.30
2018-01-15T23:38:03.958Z,7.00
2018-01-15T23:40:31.255Z,6.80
2018-01-15T23:42:57.634Z,7.10
2018-01-15T23:45:23.914Z,6.90
2018-01-15T23:47:50.205Z,6.90
2018-01-15T23:50:16.498Z,6.90
2018-01-15T23:52:42.785Z,7.10
2018-01-15T23:55:09.118Z,6.90
2018-01-15T23:57:35.390Z,6.90
